PCM81 KSAN-MMTJ
Flight info
| Callsign | PCM81 |
|---|---|
| Flight time | 0h 13m |
| Altitude | 5000 |
| Route | ZZOOO4 CENZA |
| Aircraft | C208/L-VGD/C |
Departure
| Time | 2026-05-07 20:57 |
|---|---|
| Airport | San Diego International Airport (KSAN) |
Arrival
| Time | 2026-05-07 21:10 |
|---|---|
| Airport | General Abelardo L. Rodriguez International Airport (MMTJ) |
| Time | Latitude | Longitude | Altitude | Speed | Heading |
|---|---|---|---|---|---|
| 2026-05-07 20:45 | 32.73619 | -117.18606 | 24 ft | 0 kts | 85° |
| 2026-05-07 20:53 | 32.73615 | -117.18544 | 23 ft | 16 kts | 120° |
| 2026-05-07 20:53 | 32.73504 | -117.18443 | 21 ft | 24 kts | 145° |
| 2026-05-07 20:54 | 32.73381 | -117.18403 | 22 ft | 17 kts | 196° |
| 2026-05-07 20:54 | 32.73308 | -117.18294 | 22 ft | 23 kts | 97° |
| 2026-05-07 20:54 | 32.73266 | -117.18120 | 22 ft | 24 kts | 108° |
| 2026-05-07 20:54 | 32.73213 | -117.17902 | 22 ft | 33 kts | 106° |
| 2026-05-07 20:55 | 32.73172 | -117.17735 | 22 ft | 27 kts | 105° |
| 2026-05-07 20:55 | 32.73119 | -117.17573 | 21 ft | 14 kts | 144° |
| 2026-05-07 20:55 | 32.73088 | -117.17547 | 21 ft | 0 kts | 144° |
| 2026-05-07 20:56 | 32.73049 | -117.17525 | 22 ft | 18 kts | 179° |
| 2026-05-07 20:56 | 32.73020 | -117.17579 | 21 ft | 0 kts | 289° |
| 2026-05-07 20:57 | 32.73072 | -117.17795 | 21 ft | 65 kts | 285° |
| 2026-05-07 20:57 | 32.73254 | -117.18465 | 207 ft | 98 kts | 289° |
| 2026-05-07 20:57 | 32.73484 | -117.19267 | 598 ft | 102 kts | 288° |
| 2026-05-07 20:57 | 32.73687 | -117.20056 | 1097 ft | 96 kts | 285° |
| 2026-05-07 20:58 | 32.73818 | -117.20853 | 1522 ft | 99 kts | 277° |
| 2026-05-07 20:58 | 32.73807 | -117.21679 | 1927 ft | 102 kts | 272° |
| 2026-05-07 20:58 | 32.73859 | -117.22539 | 2302 ft | 105 kts | 273° |
| 2026-05-07 20:58 | 32.73723 | -117.23393 | 2695 ft | 109 kts | 242° |
| 2026-05-07 20:59 | 32.73143 | -117.23968 | 3082 ft | 114 kts | 198° |
| 2026-05-07 20:59 | 32.72350 | -117.24038 | 3470 ft | 115 kts | 184° |
| 2026-05-07 20:59 | 32.71545 | -117.24098 | 3852 ft | 117 kts | 184° |
| 2026-05-07 20:59 | 32.70724 | -117.24148 | 4232 ft | 119 kts | 183° |
| 2026-05-07 21:00 | 32.69896 | -117.24198 | 4606 ft | 120 kts | 183° |
| 2026-05-07 21:00 | 32.69055 | -117.24247 | 4932 ft | 126 kts | 183° |
| 2026-05-07 21:00 | 32.68101 | -117.24303 | 4978 ft | 146 kts | 182° |
| 2026-05-07 21:00 | 32.67048 | -117.24365 | 4990 ft | 157 kts | 183° |
| 2026-05-07 21:01 | 32.65928 | -117.24429 | 4981 ft | 164 kts | 183° |
| 2026-05-07 21:01 | 32.64783 | -117.24490 | 4979 ft | 166 kts | 182° |
| 2026-05-07 21:01 | 32.63682 | -117.24174 | 4981 ft | 167 kts | 153° |
| 2026-05-07 21:01 | 32.62809 | -117.23282 | 4979 ft | 168 kts | 126° |
| 2026-05-07 21:02 | 32.62327 | -117.22029 | 4982 ft | 167 kts | 108° |
| 2026-05-07 21:02 | 32.61940 | -117.20727 | 4981 ft | 167 kts | 109° |
| 2026-05-07 21:02 | 32.61537 | -117.19431 | 4982 ft | 167 kts | 109° |
| 2026-05-07 21:02 | 32.61133 | -117.18139 | 4982 ft | 167 kts | 109° |
| 2026-05-07 21:03 | 32.60730 | -117.16846 | 4982 ft | 167 kts | 109° |
| 2026-05-07 21:03 | 32.60329 | -117.15553 | 4982 ft | 167 kts | 109° |
| 2026-05-07 21:03 | 32.59923 | -117.14258 | 4983 ft | 167 kts | 109° |
| 2026-05-07 21:03 | 32.59519 | -117.12961 | 4982 ft | 167 kts | 109° |
| 2026-05-07 21:04 | 32.59114 | -117.11667 | 4982 ft | 167 kts | 109° |
| 2026-05-07 21:04 | 32.58711 | -117.10370 | 4983 ft | 168 kts | 109° |
| 2026-05-07 21:04 | 32.58269 | -117.09095 | 4982 ft | 168 kts | 111° |
| 2026-05-07 21:04 | 32.57847 | -117.07803 | 4982 ft | 168 kts | 110° |
| 2026-05-07 21:05 | 32.57425 | -117.06516 | 4851 ft | 174 kts | 110° |
| 2026-05-07 21:05 | 32.56977 | -117.05162 | 4657 ft | 178 kts | 111° |
| 2026-05-07 21:05 | 32.56521 | -117.03791 | 4461 ft | 179 kts | 111° |
| 2026-05-07 21:05 | 32.56062 | -117.02416 | 4264 ft | 180 kts | 111° |
| 2026-05-07 21:06 | 32.55603 | -117.01038 | 4065 ft | 180 kts | 111° |
| 2026-05-07 21:06 | 32.55143 | -116.99665 | 3867 ft | 179 kts | 111° |
| 2026-05-07 21:06 | 32.54682 | -116.98290 | 3669 ft | 180 kts | 111° |
| 2026-05-07 21:06 | 32.54291 | -116.96885 | 3467 ft | 179 kts | 100° |
| 2026-05-07 21:07 | 32.54087 | -116.95428 | 3267 ft | 179 kts | 98° |
| 2026-05-07 21:07 | 32.53882 | -116.94015 | 3007 ft | 156 kts | 99° |
| 2026-05-07 21:07 | 32.53704 | -116.92882 | 2672 ft | 129 kts | 102° |
| 2026-05-07 21:07 | 32.53313 | -116.91979 | 2322 ft | 120 kts | 124° |
| 2026-05-07 21:08 | 32.52862 | -116.91172 | 1988 ft | 115 kts | 132° |
| 2026-05-07 21:08 | 32.52479 | -116.90402 | 1776 ft | 107 kts | 75° |
| 2026-05-07 21:08 | 32.53075 | -116.90236 | 1544 ft | 111 kts | 305° |
| 2026-05-07 21:08 | 32.53340 | -116.91066 | 1340 ft | 102 kts | 280° |
| 2026-05-07 21:09 | 32.53452 | -116.91877 | 1092 ft | 94 kts | 277° |
| 2026-05-07 21:09 | 32.53535 | -116.92594 | 955 ft | 82 kts | 277° |
| 2026-05-07 21:09 | 32.53617 | -116.93268 | 789 ft | 83 kts | 277° |
| 2026-05-07 21:09 | 32.53705 | -116.93941 | 709 ft | 85 kts | 279° |
| 2026-05-07 21:10 | 32.53801 | -116.94666 | 637 ft | 89 kts | 278° |
| 2026-05-07 21:10 | 32.53891 | -116.95376 | 546 ft | 85 kts | 278° |
| 2026-05-07 21:10 | 32.53977 | -116.96022 | 495 ft | 75 kts | 277° |
| 2026-05-07 21:10 | 32.54039 | -116.96508 | 494 ft | 47 kts | 280° |
| 2026-05-07 21:11 | 32.54091 | -116.96879 | 491 ft | 47 kts | 279° |
| 2026-05-07 21:11 | 32.54143 | -116.97190 | 489 ft | 26 kts | 293° |
| 2026-05-07 21:11 | 32.54317 | -116.97336 | 497 ft | 17 kts | 96° |
| 2026-05-07 21:12 | 32.54290 | -116.97131 | 497 ft | 34 kts | 99° |
| 2026-05-07 21:12 | 32.54247 | -116.96809 | 496 ft | 42 kts | 99° |
| 2026-05-07 21:12 | 32.54215 | -116.96516 | 497 ft | 19 kts | 68° |
| 2026-05-07 21:12 | 32.54343 | -116.96471 | 492 ft | 21 kts | 7° |
| 2026-05-07 21:13 | 32.54432 | -116.96561 | 494 ft | 9 kts | 235° |
| 2026-05-07 21:13 | 32.54418 | -116.96546 | 497 ft | 0 kts | 98° |